sensor_id;sensor_type;location;lat;lon;timestamp;pressure;altitude;pressure_sealevel;temperature;humidity
48364;BME280;34170;54.364;18.582;2023-12-04T00:02:22;100497.63;;;-1.31;100.00
48364;BME280;34170;54.364;18.582;2023-12-04T00:04:49;100494.84;;;-1.28;100.00
48364;BME280;34170;54.364;18.582;2023-12-04T00:07:17;100497.66;;;-1.32;100.00
48364;BME280;34170;54.364;18.582;2023-12-04T00:09:44;100505.81;;;-1.37;100.00
48364;BME280;34170;54.364;18.582;2023-12-04T00:12:12;100474.91;;;-1.56;100.00
48364;BME280;34170;54.364;18.582;2023-12-04T00:14:40;100482.44;;;-1.68;100.00
48364;BME280;34170;54.364;18.582;2023-12-04T00:17:07;100490.19;;;-1.64;100.00
48364;BME280;34170;54.364;18.582;2023-12-04T00:19:35;100499.28;;;-1.50;100.00
48364;BME280;34170;54.364;18.582;2023-12-04T00:22:03;100486.94;;;-1.48;100.00
48364;BME280;34170;54.364;18.582;2023-12-04T00:24:30;100472.34;;;-1.57;100.00
48364;BME280;34170;54.364;18.582;2023-12-04T00:26:58;100508.91;;;-1.27;100.00
48364;BME280;34170;54.364;18.582;2023-12-04T00:29:25;100464.56;;;-1.82;100.00
48364;BME280;34170;54.364;18.582;2023-12-04T00:31:53;100499.38;;;-1.74;100.00
48364;BME280;34170;54.364;18.582;2023-12-04T00:34:20;100498.84;;;-1.82;100.00
48364;BME280;34170;54.364;18.582;2023-12-04T00:36:48;100507.97;;;-1.69;100.00
48364;BME280;34170;54.364;18.582;2023-12-04T00:39:16;100502.63;;;-1.67;100.00
48364;BME280;34170;54.364;18.582;2023-12-04T00:41:43;100482.22;;;-1.84;100.00
48364;BME280;34170;54.364;18.582;2023-12-04T00:44:11;100451.06;;;-1.75;100.00
48364;BME280;34170;54.364;18.582;2023-12-04T00:46:39;100520.22;;;-1.46;100.00
48364;BME280;34170;54.364;18.582;2023-12-04T00:49:06;100508.53;;;-1.61;100.00
48364;BME280;34170;54.364;18.582;2023-12-04T00:51:37;100472.56;;;-1.63;100.00
48364;BME280;34170;54.364;18.582;2023-12-04T00:54:06;100510.13;;;-1.36;100.00
48364;BME280;34170;54.364;18.582;2023-12-04T00:56:33;100517.09;;;-1.13;100.00
48364;BME280;34170;54.364;18.582;2023-12-04T00:59:01;100471.84;;;-1.45;100.00
48364;BME280;34170;54.364;18.582;2023-12-04T01:01:28;100526.28;;;-1.44;100.00
48364;BME280;34170;54.364;18.582;2023-12-04T01:03:57;100527.22;;;-1.45;100.00
48364;BME280;34170;54.364;18.582;2023-12-04T01:06:25;100522.19;;;-1.51;100.00
48364;BME280;34170;54.364;18.582;2023-12-04T01:08:54;100523.53;;;-1.41;100.00
48364;BME280;34170;54.364;18.582;2023-12-04T01:11:22;100518.50;;;-1.47;100.00
48364;BME280;34170;54.364;18.582;2023-12-04T01:13:49;100536.78;;;-1.42;100.00
48364;BME280;34170;54.364;18.582;2023-12-04T01:16:17;100484.59;;;-1.56;100.00
48364;BME280;34170;54.364;18.582;2023-12-04T01:18:45;100533.19;;;-1.19;100.00
48364;BME280;34170;54.364;18.582;2023-12-04T01:21:12;100488.38;;;-1.41;100.00
48364;BME280;34170;54.364;18.582;2023-12-04T01:23:40;100538.47;;;-1.19;100.00
48364;BME280;34170;54.364;18.582;2023-12-04T01:26:10;100488.56;;;-1.46;100.00
48364;BME280;34170;54.364;18.582;2023-12-04T01:28:37;100540.28;;;-1.42;100.00
48364;BME280;34170;54.364;18.582;2023-12-04T01:31:06;100545.38;;;-1.37;100.00
48364;BME280;34170;54.364;18.582;2023-12-04T01:33:33;100526.63;;;-1.51;100.00
48364;BME280;34170;54.364;18.582;2023-12-04T01:36:02;100563.53;;;-1.51;100.00
48364;BME280;34170;54.364;18.582;2023-12-04T01:38:30;100507.25;;;-1.73;100.00
48364;BME280;34170;54.364;18.582;2023-12-04T01:40:58;100501.78;;;-1.90;100.00
48364;BME280;34170;54.364;18.582;2023-12-04T01:43:25;100519.31;;;-1.89;100.00
48364;BME280;34170;54.364;18.582;2023-12-04T01:45:53;100548.31;;;-1.67;100.00
48364;BME280;34170;54.364;18.582;2023-12-04T01:48:21;100542.94;;;-1.86;100.00
48364;BME280;34170;54.364;18.582;2023-12-04T01:50:50;100536.63;;;-1.82;100.00
48364;BME280;34170;54.364;18.582;2023-12-04T01:53:18;100542.63;;;-2.00;100.00
48364;BME280;34170;54.364;18.582;2023-12-04T01:55:47;100534.56;;;-1.97;100.00
48364;BME280;34170;54.364;18.582;2023-12-04T01:58:14;100543.03;;;-1.89;100.00
48364;BME280;34170;54.364;18.582;2023-12-04T02:00:42;100532.44;;;-1.65;100.00
48364;BME280;34170;54.364;18.582;2023-12-04T02:03:10;100541.59;;;-1.52;100.00
48364;BME280;34170;54.364;18.582;2023-12-04T02:05:38;100490.84;;;-1.81;100.00
48364;BME280;34170;54.364;18.582;2023-12-04T02:08:06;100532.63;;;-1.48;100.00
48364;BME280;34170;54.364;18.582;2023-12-04T02:10:35;100535.44;;;-1.52;100.00
48364;BME280;34170;54.364;18.582;2023-12-04T02:13:03;100495.34;;;-1.83;100.00
48364;BME280;34170;54.364;18.582;2023-12-04T02:15:31;100539.13;;;-1.57;100.00
48364;BME280;34170;54.364;18.582;2023-12-04T02:17:59;100497.16;;;-1.63;100.00
48364;BME280;34170;54.364;18.582;2023-12-04T02:20:34;100558.28;;;-1.51;100.00
48364;BME280;34170;54.364;18.582;2023-12-04T02:23:02;100546.97;;;-1.55;100.00
48364;BME280;34170;54.364;18.582;2023-12-04T02:25:31;100550.72;;;-1.61;100.00
48364;BME280;34170;54.364;18.582;2023-12-04T02:28:05;100491.97;;;-1.86;100.00
48364;BME280;34170;54.364;18.582;2023-12-04T02:30:35;100545.88;;;-1.71;100.00
48364;BME280;34170;54.364;18.582;2023-12-04T02:33:05;100544.03;;;-1.69;100.00
48364;BME280;34170;54.364;18.582;2023-12-04T02:35:35;100545.13;;;-1.53;100.00
48364;BME280;34170;54.364;18.582;2023-12-04T02:38:06;100540.34;;;-1.65;100.00
48364;BME280;34170;54.364;18.582;2023-12-04T02:40:34;100535.03;;;-1.64;100.00
48364;BME280;34170;54.364;18.582;2023-12-04T02:43:02;100542.63;;;-1.78;100.00
48364;BME280;34170;54.364;18.582;2023-12-04T02:45:30;100554.56;;;-1.92;100.00
48364;BME280;34170;54.364;18.582;2023-12-04T02:47:57;100503.88;;;-2.22;100.00
48364;BME280;34170;54.364;18.582;2023-12-04T02:50:25;100550.00;;;-1.88;100.00
48364;BME280;34170;54.364;18.582;2023-12-04T02:52:52;100551.13;;;-1.94;100.00
48364;BME280;34170;54.364;18.582;2023-12-04T02:55:20;100562.03;;;-2.03;100.00
48364;BME280;34170;54.364;18.582;2023-12-04T02:57:47;100553.34;;;-1.83;100.00
48364;BME280;34170;54.364;18.582;2023-12-04T03:00:15;100554.97;;;-1.79;100.00
48364;BME280;34170;54.364;18.582;2023-12-04T03:02:43;100553.34;;;-1.83;100.00
48364;BME280;34170;54.364;18.582;2023-12-04T03:05:10;100550.63;;;-2.03;100.00
48364;BME280;34170;54.364;18.582;2023-12-04T03:07:38;100553.84;;;-2.19;100.00
48364;BME280;34170;54.364;18.582;2023-12-04T03:10:06;100555.31;;;-2.35;100.00
48364;BME280;34170;54.364;18.582;2023-12-04T03:12:33;100517.97;;;-2.70;100.00
48364;BME280;34170;54.364;18.582;2023-12-04T03:15:01;100547.53;;;-2.38;100.00
48364;BME280;34170;54.364;18.582;2023-12-04T03:17:28;100516.97;;;-2.91;100.00
48364;BME280;34170;54.364;18.582;2023-12-04T03:19:57;100518.63;;;-2.89;100.00
48364;BME280;34170;54.364;18.582;2023-12-04T03:22:24;100558.72;;;-2.80;100.00
48364;BME280;34170;54.364;18.582;2023-12-04T03:24:52;100508.56;;;-3.02;100.00
48364;BME280;34170;54.364;18.582;2023-12-04T03:27:19;100550.25;;;-2.90;100.00
48364;BME280;34170;54.364;18.582;2023-12-04T03:29:47;100521.28;;;-3.15;100.00
48364;BME280;34170;54.364;18.582;2023-12-04T03:32:14;100569.66;;;-2.93;100.00
48364;BME280;34170;54.364;18.582;2023-12-04T03:34:42;100552.25;;;-2.97;100.00
48364;BME280;34170;54.364;18.582;2023-12-04T03:37:09;100530.81;;;-3.11;100.00
48364;BME280;34170;54.364;18.582;2023-12-04T03:39:38;100551.75;;;-3.08;100.00
48364;BME280;34170;54.364;18.582;2023-12-04T03:42:05;100564.28;;;-3.15;100.00
48364;BME280;34170;54.364;18.582;2023-12-04T03:44:33;100522.34;;;-3.46;100.00
48364;BME280;34170;54.364;18.582;2023-12-04T03:47:00;100548.31;;;-3.37;100.00
48364;BME280;34170;54.364;18.582;2023-12-04T03:49:28;100520.00;;;-3.55;100.00
48364;BME280;34170;54.364;18.582;2023-12-04T03:51:56;100530.72;;;-3.35;100.00
48364;BME280;34170;54.364;18.582;2023-12-04T03:54:24;100513.94;;;-3.31;100.00
48364;BME280;34170;54.364;18.582;2023-12-04T03:56:51;100526.06;;;-3.27;100.00
48364;BME280;34170;54.364;18.582;2023-12-04T03:59:19;100558.03;;;-3.39;100.00
48364;BME280;34170;54.364;18.582;2023-12-04T04:01:46;100575.56;;;-3.38;100.00
48364;BME280;34170;54.364;18.582;2023-12-04T04:04:14;100541.75;;;-3.50;100.00
48364;BME280;34170;54.364;18.582;2023-12-04T04:06:41;100587.47;;;-3.01;100.00
48364;BME280;34170;54.364;18.582;2023-12-04T04:09:09;100563.63;;;-3.21;100.00
48364;BME280;34170;54.364;18.582;2023-12-04T04:11:36;100575.66;;;-3.14;100.00
48364;BME280;34170;54.364;18.582;2023-12-04T04:14:04;100535.97;;;-3.35;100.00
48364;BME280;34170;54.364;18.582;2023-12-04T04:16:32;100579.41;;;-3.21;100.00
48364;BME280;34170;54.364;18.582;2023-12-04T04:18:59;100527.84;;;-3.54;100.00
48364;BME280;34170;54.364;18.582;2023-12-04T04:21:27;100567.75;;;-3.41;100.00
48364;BME280;34170;54.364;18.582;2023-12-04T04:23:55;100537.91;;;-3.67;100.00
48364;BME280;34170;54.364;18.582;2023-12-04T04:26:22;100536.09;;;-3.65;100.00
48364;BME280;34170;54.364;18.582;2023-12-04T04:28:49;100579.63;;;-3.56;100.00
48364;BME280;34170;54.364;18.582;2023-12-04T04:31:17;100570.06;;;-3.32;100.00
48364;BME280;34170;54.364;18.582;2023-12-04T04:33:45;100586.09;;;-3.11;100.00
48364;BME280;34170;54.364;18.582;2023-12-04T04:36:12;100587.34;;;-3.23;100.00
48364;BME280;34170;54.364;18.582;2023-12-04T04:38:40;100575.88;;;-3.22;100.00
48364;BME280;34170;54.364;18.582;2023-12-04T04:41:13;100594.78;;;-3.09;100.00
48364;BME280;34170;54.364;18.582;2023-12-04T04:43:42;100558.38;;;-3.50;100.00
48364;BME280;34170;54.364;18.582;2023-12-04T04:46:10;100550.34;;;-3.72;100.00
48364;BME280;34170;54.364;18.582;2023-12-04T04:48:38;100541.31;;;-3.63;100.00
48364;BME280;34170;54.364;18.582;2023-12-04T04:51:06;100551.03;;;-3.40;100.00
48364;BME280;34170;54.364;18.582;2023-12-04T04:53:34;100578.94;;;-3.34;100.00
48364;BME280;34170;54.364;18.582;2023-12-04T04:56:02;100541.81;;;-3.52;100.00
48364;BME280;34170;54.364;18.582;2023-12-04T04:58:30;100600.75;;;-3.31;100.00
48364;BME280;34170;54.364;18.582;2023-12-04T05:00:57;100568.00;;;-3.49;100.00
48364;BME280;34170;54.364;18.582;2023-12-04T05:03:25;100552.56;;;-3.59;100.00
48364;BME280;34170;54.364;18.582;2023-12-04T05:05:52;100543.81;;;-3.88;100.00
48364;BME280;34170;54.364;18.582;2023-12-04T05:08:20;100584.69;;;-3.50;100.00
48364;BME280;34170;54.364;18.582;2023-12-04T05:10:48;100539.41;;;-3.86;100.00
48364;BME280;34170;54.364;18.582;2023-12-04T05:13:15;100589.47;;;-3.62;100.00
48364;BME280;34170;54.364;18.582;2023-12-04T05:15:43;100549.44;;;-3.72;100.00
48364;BME280;34170;54.364;18.582;2023-12-04T05:18:11;100538.53;;;-4.15;100.00
48364;BME280;34170;54.364;18.582;2023-12-04T05:20:38;100582.19;;;-3.54;100.00
48364;BME280;34170;54.364;18.582;2023-12-04T05:23:06;100582.81;;;-3.46;100.00
48364;BME280;34170;54.364;18.582;2023-12-04T05:25:33;100586.16;;;-3.41;100.00
48364;BME280;34170;54.364;18.582;2023-12-04T05:28:11;100578.63;;;-3.52;100.00
48364;BME280;34170;54.364;18.582;2023-12-04T05:30:38;100581.63;;;-3.64;100.00
48364;BME280;34170;54.364;18.582;2023-12-04T05:33:06;100545.06;;;-4.00;100.00
48364;BME280;34170;54.364;18.582;2023-12-04T05:35:34;100571.13;;;-3.94;100.00
48364;BME280;34170;54.364;18.582;2023-12-04T05:38:03;100581.66;;;-3.94;100.00
48364;BME280;34170;54.364;18.582;2023-12-04T05:40:31;100568.19;;;-3.83;100.00
48364;BME280;34170;54.364;18.582;2023-12-04T05:42:58;100538.25;;;-4.06;100.00
48364;BME280;34170;54.364;18.582;2023-12-04T05:45:26;100564.34;;;-3.71;100.00
48364;BME280;34170;54.364;18.582;2023-12-04T05:47:54;100573.19;;;-3.47;100.00
48364;BME280;34170;54.364;18.582;2023-12-04T05:50:21;100521.78;;;-3.56;100.00
48364;BME280;34170;54.364;18.582;2023-12-04T05:52:50;100548.72;;;-3.49;100.00
48364;BME280;34170;54.364;18.582;2023-12-04T05:55:18;100537.44;;;-3.53;100.00
48364;BME280;34170;54.364;18.582;2023-12-04T05:57:46;100579.13;;;-3.14;100.00
48364;BME280;34170;54.364;18.582;2023-12-04T06:00:13;100562.53;;;-3.42;100.00
48364;BME280;34170;54.364;18.582;2023-12-04T06:02:43;100533.34;;;-3.61;100.00
48364;BME280;34170;54.364;18.582;2023-12-04T06:05:10;100546.22;;;-3.52;100.00
48364;BME280;34170;54.364;18.582;2023-12-04T06:07:38;100575.00;;;-3.49;100.00
48364;BME280;34170;54.364;18.582;2023-12-04T06:10:06;100583.31;;;-3.35;100.00
48364;BME280;34170;54.364;18.582;2023-12-04T06:12:35;100565.66;;;-3.31;100.00
48364;BME280;34170;54.364;18.582;2023-12-04T06:15:03;100571.72;;;-3.29;100.00
48364;BME280;34170;54.364;18.582;2023-12-04T06:17:31;100511.47;;;-3.90;100.00
48364;BME280;34170;54.364;18.582;2023-12-04T06:19:59;100543.28;;;-3.99;100.00
48364;BME280;34170;54.364;18.582;2023-12-04T06:22:27;100551.16;;;-4.29;100.00
48364;BME280;34170;54.364;18.582;2023-12-04T06:24:54;100535.25;;;-4.23;100.00
48364;BME280;34170;54.364;18.582;2023-12-04T06:27:23;100573.72;;;-3.92;100.00
48364;BME280;34170;54.364;18.582;2023-12-04T06:29:51;100529.53;;;-4.37;100.00
48364;BME280;34170;54.364;18.582;2023-12-04T06:32:20;100589.44;;;-3.91;100.00
48364;BME280;34170;54.364;18.582;2023-12-04T06:34:47;100566.75;;;-3.65;100.00
48364;BME280;34170;54.364;18.582;2023-12-04T06:37:15;100577.50;;;-3.45;100.00
48364;BME280;34170;54.364;18.582;2023-12-04T06:39:45;100576.75;;;-3.48;100.00
48364;BME280;34170;54.364;18.582;2023-12-04T06:42:13;100570.69;;;-3.50;100.00
48364;BME280;34170;54.364;18.582;2023-12-04T06:44:41;100527.88;;;-3.82;100.00
48364;BME280;34170;54.364;18.582;2023-12-04T06:47:09;100586.13;;;-3.39;100.00
48364;BME280;34170;54.364;18.582;2023-12-04T06:49:39;100549.94;;;-3.59;100.00
48364;BME280;34170;54.364;18.582;2023-12-04T06:52:07;100554.19;;;-3.55;100.00
48364;BME280;34170;54.364;18.582;2023-12-04T06:54:34;100595.00;;;-3.17;100.00
48364;BME280;34170;54.364;18.582;2023-12-04T06:57:02;100545.19;;;-3.21;100.00
48364;BME280;34170;54.364;18.582;2023-12-04T06:59:30;100577.66;;;-2.96;100.00
48364;BME280;34170;54.364;18.582;2023-12-04T07:01:58;100538.53;;;-3.07;100.00
48364;BME280;34170;54.364;18.582;2023-12-04T07:04:25;100536.66;;;-3.03;100.00
48364;BME280;34170;54.364;18.582;2023-12-04T07:06:53;100590.72;;;-2.42;100.00
48364;BME280;34170;54.364;18.582;2023-12-04T07:09:20;100577.34;;;-2.13;100.00
48364;BME280;34170;54.364;18.582;2023-12-04T07:11:48;100592.09;;;-1.85;100.00
48364;BME280;34170;54.364;18.582;2023-12-04T07:14:15;100587.06;;;-1.91;100.00
48364;BME280;34170;54.364;18.582;2023-12-04T07:16:44;100582.28;;;-1.81;100.00
48364;BME280;34170;54.364;18.582;2023-12-04T07:19:11;100607.44;;;-1.73;100.00
48364;BME280;34170;54.364;18.582;2023-12-04T07:21:40;100587.09;;;-1.69;100.00
48364;BME280;34170;54.364;18.582;2023-12-04T07:24:08;100560.44;;;-1.85;100.00
48364;BME280;34170;54.364;18.582;2023-12-04T07:26:36;100556.91;;;-1.84;100.00
48364;BME280;34170;54.364;18.582;2023-12-04T07:29:03;100543.78;;;-1.85;100.00
48364;BME280;34170;54.364;18.582;2023-12-04T07:31:31;100604.16;;;-1.56;100.00
48364;BME280;34170;54.364;18.582;2023-12-04T07:33:59;100604.22;;;-1.57;100.00
48364;BME280;34170;54.364;18.582;2023-12-04T07:36:29;100604.91;;;-1.52;100.00
48364;BME280;34170;54.364;18.582;2023-12-04T07:38:56;100603.28;;;-1.56;100.00
48364;BME280;34170;54.364;18.582;2023-12-04T07:41:24;100568.47;;;-1.64;100.00
48364;BME280;34170;54.364;18.582;2023-12-04T07:43:52;100579.91;;;-1.43;100.00
48364;BME280;34170;54.364;18.582;2023-12-04T07:46:20;100595.91;;;-1.70;100.00
48364;BME280;34170;54.364;18.582;2023-12-04T07:48:47;100564.81;;;-1.62;100.00
48364;BME280;34170;54.364;18.582;2023-12-04T07:51:15;100596.47;;;-1.40;100.00
48364;BME280;34170;54.364;18.582;2023-12-04T07:53:43;100591.44;;;-1.24;100.00
48364;BME280;34170;54.364;18.582;2023-12-04T07:56:11;100555.06;;;-1.38;100.00
48364;BME280;34170;54.364;18.582;2023-12-04T07:58:39;100601.44;;;-1.54;100.00
48364;BME280;34170;54.364;18.582;2023-12-04T08:01:07;100557.16;;;-1.46;100.00
48364;BME280;34170;54.364;18.582;2023-12-04T08:03:35;100581.56;;;-1.19;100.00
48364;BME280;34170;54.364;18.582;2023-12-04T08:06:05;100596.81;;;-1.05;100.00
48364;BME280;34170;54.364;18.582;2023-12-04T08:08:33;100559.53;;;-1.40;100.00
48364;BME280;34170;54.364;18.582;2023-12-04T08:11:01;100591.22;;;-0.97;100.00
48364;BME280;34170;54.364;18.582;2023-12-04T08:13:28;100590.53;;;-0.80;100.00
48364;BME280;34170;54.364;18.582;2023-12-04T08:15:56;100588.94;;;-0.64;100.00
48364;BME280;34170;54.364;18.582;2023-12-04T08:18:24;100598.84;;;-0.48;100.00
48364;BME280;34170;54.364;18.582;2023-12-04T08:20:52;100600.44;;;-0.25;100.00
48364;BME280;34170;54.364;18.582;2023-12-04T08:23:19;100598.13;;;-0.12;100.00
48364;BME280;34170;54.364;18.582;2023-12-04T08:25:47;100564.63;;;-0.32;100.00
48364;BME280;34170;54.364;18.582;2023-12-04T08:28:15;100602.63;;;0.05;100.00
48364;BME280;34170;54.364;18.582;2023-12-04T08:30:43;100563.44;;;-0.25;100.00
48364;BME280;34170;54.364;18.582;2023-12-04T08:33:10;100569.03;;;-0.12;100.00
48364;BME280;34170;54.364;18.582;2023-12-04T08:35:38;100590.41;;;0.02;100.00
48364;BME280;34170;54.364;18.582;2023-12-04T08:38:06;100578.72;;;-0.32;100.00
48364;BME280;34170;54.364;18.582;2023-12-04T08:40:33;100603.41;;;-0.12;100.00
48364;BME280;34170;54.364;18.582;2023-12-04T08:43:01;100606.00;;;0.08;100.00
48364;BME280;34170;54.364;18.582;2023-12-04T08:45:29;100600.34;;;-0.03;100.00
48364;BME280;34170;54.364;18.582;2023-12-04T08:47:57;100601.78;;;0.04;100.00
48364;BME280;34170;54.364;18.582;2023-12-04T08:50:24;100600.13;;;0.21;100.00
48364;BME280;34170;54.364;18.582;2023-12-04T08:52:52;100601.63;;;0.26;100.00
48364;BME280;34170;54.364;18.582;2023-12-04T08:55:20;100598.13;;;0.07;100.00
48364;BME280;34170;54.364;18.582;2023-12-04T08:57:47;100570.31;;;-0.02;100.00
48364;BME280;34170;54.364;18.582;2023-12-04T09:00:16;100609.50;;;0.28;100.00
48364;BME280;34170;54.364;18.582;2023-12-04T09:02:43;100607.13;;;0.41;100.00
48364;BME280;34170;54.364;18.582;2023-12-04T09:05:20;100613.50;;;0.17;100.00
48364;BME280;34170;54.364;18.582;2023-12-04T09:07:48;100613.63;;;0.33;100.00
48364;BME280;34170;54.364;18.582;2023-12-04T09:10:36;100617.34;;;0.10;100.00
48364;BME280;34170;54.364;18.582;2023-12-04T09:13:23;100614.59;;;-0.07;100.00
48364;BME280;34170;54.364;18.582;2023-12-04T09:15:51;100626.78;;;-0.03;100.00
48364;BME280;34170;54.364;18.582;2023-12-04T09:18:18;100588.31;;;0.09;100.00
48364;BME280;34170;54.364;18.582;2023-12-04T09:20:47;100613.06;;;0.27;100.00
48364;BME280;34170;54.364;18.582;2023-12-04T09:23:15;100576.59;;;0.33;100.00
48364;BME280;34170;54.364;18.582;2023-12-04T09:25:43;100638.94;;;0.58;100.00
48364;BME280;34170;54.364;18.582;2023-12-04T09:28:10;100606.34;;;0.75;100.00
48364;BME280;34170;54.364;18.582;2023-12-04T09:30:38;100566.97;;;0.69;100.00
48364;BME280;34170;54.364;18.582;2023-12-04T09:33:06;100629.47;;;1.60;100.00
48364;BME280;34170;54.364;18.582;2023-12-04T09:35:34;100619.41;;;2.00;100.00
48364;BME280;34170;54.364;18.582;2023-12-04T09:38:01;100618.34;;;2.52;96.20
48364;BME280;34170;54.364;18.582;2023-12-04T09:40:29;100594.38;;;3.16;93.79
48364;BME280;34170;54.364;18.582;2023-12-04T09:42:57;100621.81;;;2.70;92.35
48364;BME280;34170;54.364;18.582;2023-12-04T09:45:26;100584.81;;;1.86;96.71
48364;BME280;34170;54.364;18.582;2023-12-04T09:47:56;100581.13;;;1.73;100.00
48364;BME280;34170;54.364;18.582;2023-12-04T09:50:24;100621.16;;;2.17;100.00
48364;BME280;34170;54.364;18.582;2023-12-04T09:52:52;100618.94;;;2.41;96.19
48364;BME280;34170;54.364;18.582;2023-12-04T09:55:20;100612.34;;;2.80;94.87
48364;BME280;34170;54.364;18.582;2023-12-04T09:57:47;100619.13;;;3.16;92.75
48364;BME280;34170;54.364;18.582;2023-12-04T10:00:17;100576.47;;;3.03;91.54
48364;BME280;34170;54.364;18.582;2023-12-04T10:02:46;100578.88;;;3.08;90.16
48364;BME280;34170;54.364;18.582;2023-12-04T10:05:15;100571.16;;;3.34;88.64
48364;BME280;34170;54.364;18.582;2023-12-04T10:07:42;100567.88;;;3.14;88.67
48364;BME280;34170;54.364;18.582;2023-12-04T10:10:10;100565.28;;;2.82;87.61
48364;BME280;34170;54.364;18.582;2023-12-04T10:12:38;100595.44;;;3.28;89.34
48364;BME280;34170;54.364;18.582;2023-12-04T10:15:07;100597.56;;;3.37;87.31
48364;BME280;34170;54.364;18.582;2023-12-04T10:17:37;100545.72;;;2.69;89.65
48364;BME280;34170;54.364;18.582;2023-12-04T10:20:12;100609.38;;;3.17;86.73
48364;BME280;34170;54.364;18.582;2023-12-04T10:22:55;100559.50;;;3.06;86.96
48364;BME280;34170;54.364;18.582;2023-12-04T10:25:24;100575.66;;;3.17;88.16
48364;BME280;34170;54.364;18.582;2023-12-04T10:27:53;100589.16;;;3.29;86.78
48364;BME280;34170;54.364;18.582;2023-12-04T10:30:23;100609.78;;;3.84;86.22
48364;BME280;34170;54.364;18.582;2023-12-04T10:32:57;100581.63;;;4.23;83.32
48364;BME280;34170;54.364;18.582;2023-12-04T10:35:29;100610.16;;;3.92;83.71
48364;BME280;34170;54.364;18.582;2023-12-04T10:38:00;100567.03;;;4.43;80.99
48364;BME280;34170;54.364;18.582;2023-12-04T10:40:28;100617.31;;;4.62;77.26
48364;BME280;34170;54.364;18.582;2023-12-04T10:45:40;100559.41;;;3.08;82.88
48364;BME280;34170;54.364;18.582;2023-12-04T10:48:09;100588.75;;;1.95;92.70
48364;BME280;34170;54.364;18.582;2023-12-04T10:50:39;100561.09;;;1.67;94.46
48364;BME280;34170;54.364;18.582;2023-12-04T10:53:08;100616.00;;;1.65;96.13
48364;BME280;34170;54.364;18.582;2023-12-04T10:55:37;100596.75;;;1.44;98.83
48364;BME280;34170;54.364;18.582;2023-12-04T10:58:09;100557.88;;;0.92;99.89
48364;BME280;34170;54.364;18.582;2023-12-04T11:00:42;100557.50;;;1.17;98.25
48364;BME280;34170;54.364;18.582;2023-12-04T11:03:21;100566.13;;;0.68;100.00
48364;BME280;34170;54.364;18.582;2023-12-04T11:06:00;100605.31;;;1.66;98.70
48364;BME280;34170;54.364;18.582;2023-12-04T11:08:33;100596.22;;;2.04;97.47
48364;BME280;34170;54.364;18.582;2023-12-04T11:11:07;100587.34;;;2.05;94.58
48364;BME280;34170;54.364;18.582;2023-12-04T11:13:39;100590.06;;;2.03;95.63
48364;BME280;34170;54.364;18.582;2023-12-04T11:16:16;100554.75;;;1.69;96.93
48364;BME280;34170;54.364;18.582;2023-12-04T11:19:38;100574.53;;;1.46;98.63
48364;BME280;34170;54.364;18.582;2023-12-04T11:21:45;100597.06;;;1.38;100.00
48364;BME280;34170;54.364;18.582;2023-12-04T11:24:13;100564.91;;;0.56;100.00
48364;BME280;34170;54.364;18.582;2023-12-04T11:26:42;100550.13;;;0.52;100.00
48364;BME280;34170;54.364;18.582;2023-12-04T11:29:12;100591.91;;;1.00;100.00
48364;BME280;34170;54.364;18.582;2023-12-04T11:31:40;100593.56;;;1.02;100.00
48364;BME280;34170;54.364;18.582;2023-12-04T11:34:08;100595.94;;;0.72;100.00
48364;BME280;34170;54.364;18.582;2023-12-04T11:36:39;100598.13;;;0.81;100.00
48364;BME280;34170;54.364;18.582;2023-12-04T11:39:11;100603.88;;;0.72;100.00
48364;BME280;34170;54.364;18.582;2023-12-04T11:41:42;100615.91;;;0.60;100.00
48364;BME280;34170;54.364;18.582;2023-12-04T11:44:14;100550.69;;;0.04;100.00
48364;BME280;34170;54.364;18.582;2023-12-04T11:47:03;100591.63;;;0.33;100.00
48364;BME280;34170;54.364;18.582;2023-12-04T11:49:33;100603.78;;;0.18;100.00
48364;BME280;34170;54.364;18.582;2023-12-04T11:52:03;100617.94;;;0.36;100.00
48364;BME280;34170;54.364;18.582;2023-12-04T11:54:58;100609.06;;;0.37;100.00
48364;BME280;34170;54.364;18.582;2023-12-04T11:57:27;100618.94;;;0.52;100.00
48364;BME280;34170;54.364;18.582;2023-12-04T12:02:40;100608.69;;;0.64;100.00
48364;BME280;34170;54.364;18.582;2023-12-04T12:05:30;100574.25;;;0.08;100.00
48364;BME280;34170;54.364;18.582;2023-12-04T12:08:00;100604.78;;;0.15;100.00
48364;BME280;34170;54.364;18.582;2023-12-04T12:10:29;100591.69;;;0.31;100.00
48364;BME280;34170;54.364;18.582;2023-12-04T12:12:57;100619.13;;;0.48;100.00
48364;BME280;34170;54.364;18.582;2023-12-04T12:15:25;100587.13;;;0.35;100.00
48364;BME280;34170;54.364;18.582;2023-12-04T12:17:53;100595.69;;;0.40;100.00
48364;BME280;34170;54.364;18.582;2023-12-04T12:20:21;100603.00;;;0.35;100.00
48364;BME280;34170;54.364;18.582;2023-12-04T12:22:49;100592.41;;;0.35;100.00
48364;BME280;34170;54.364;18.582;2023-12-04T12:25:17;100599.31;;;0.37;100.00
48364;BME280;34170;54.364;18.582;2023-12-04T12:27:45;100601.13;;;0.56;100.00
48364;BME280;34170;54.364;18.582;2023-12-04T12:30:13;100586.47;;;0.49;100.00
48364;BME280;34170;54.364;18.582;2023-12-04T12:32:42;100594.06;;;0.18;100.00
48364;BME280;34170;54.364;18.582;2023-12-04T12:35:10;100576.03;;;-0.11;100.00
48364;BME280;34170;54.364;18.582;2023-12-04T12:37:39;100595.91;;;-0.03;100.00
48364;BME280;34170;54.364;18.582;2023-12-04T12:40:07;100592.75;;;0.08;100.00
48364;BME280;34170;54.364;18.582;2023-12-04T12:42:37;100577.63;;;0.31;100.00
48364;BME280;34170;54.364;18.582;2023-12-04T12:45:09;100589.75;;;0.16;100.00
48364;BME280;34170;54.364;18.582;2023-12-04T12:47:43;100599.97;;;0.05;100.00
48364;BME280;34170;54.364;18.582;2023-12-04T12:50:11;100586.34;;;0.14;100.00